sensor_id;sensor_type;location;lat;lon;timestamp;temperature;humidity
3037;DHT22;1528;52.550;13.408;2023-12-22T00:01:09;6.20;32.10
3037;DHT22;1528;52.550;13.408;2023-12-22T00:03:57;6.20;32.60
3037;DHT22;1528;52.550;13.408;2023-12-22T00:06:42;6.10;31.80
3037;DHT22;1528;52.550;13.408;2023-12-22T00:09:28;6.10;31.20
3037;DHT22;1528;52.550;13.408;2023-12-22T00:12:14;6.00;31.20
3037;DHT22;1528;52.550;13.408;2023-12-22T00:14:59;6.00;31.30
3037;DHT22;1528;52.550;13.408;2023-12-22T00:17:45;5.90;31.10
3037;DHT22;1528;52.550;13.408;2023-12-22T00:20:33;6.00;31.50
3037;DHT22;1528;52.550;13.408;2023-12-22T00:23:18;5.80;30.80
3037;DHT22;1528;52.550;13.408;2023-12-22T00:26:04;5.80;30.40
3037;DHT22;1528;52.550;13.408;2023-12-22T00:28:50;5.80;30.60
3037;DHT22;1528;52.550;13.408;2023-12-22T00:31:35;5.80;30.30
3037;DHT22;1528;52.550;13.408;2023-12-22T00:34:22;5.80;30.20
3037;DHT22;1528;52.550;13.408;2023-12-22T00:37:09;5.80;29.90
3037;DHT22;1528;52.550;13.408;2023-12-22T00:39:56;5.80;29.40
3037;DHT22;1528;52.550;13.408;2023-12-22T00:42:41;5.90;29.70
3037;DHT22;1528;52.550;13.408;2023-12-22T00:45:27;6.00;28.60
3037;DHT22;1528;52.550;13.408;2023-12-22T00:48:12;6.00;28.90
3037;DHT22;1528;52.550;13.408;2023-12-22T00:50:58;6.10;28.70
3037;DHT22;1528;52.550;13.408;2023-12-22T00:53:45;6.10;28.70
3037;DHT22;1528;52.550;13.408;2023-12-22T00:56:30;6.20;28.80
3037;DHT22;1528;52.550;13.408;2023-12-22T00:59:16;6.20;28.90
3037;DHT22;1528;52.550;13.408;2023-12-22T01:02:02;6.20;29.20
3037;DHT22;1528;52.550;13.408;2023-12-22T01:04:47;6.20;29.20
3037;DHT22;1528;52.550;13.408;2023-12-22T01:07:33;6.20;29.30
3037;DHT22;1528;52.550;13.408;2023-12-22T01:10:20;6.20;29.80
3037;DHT22;1528;52.550;13.408;2023-12-22T01:13:05;6.10;30.00
3037;DHT22;1528;52.550;13.408;2023-12-22T01:15:51;6.10;30.20
3037;DHT22;1528;52.550;13.408;2023-12-22T01:18:37;6.00;30.50
3037;DHT22;1528;52.550;13.408;2023-12-22T01:21:26;6.00;30.60
3037;DHT22;1528;52.550;13.408;2023-12-22T01:24:12;6.00;31.00
3037;DHT22;1528;52.550;13.408;2023-12-22T01:26:58;6.10;31.40
3037;DHT22;1528;52.550;13.408;2023-12-22T01:29:44;6.10;31.70
3037;DHT22;1528;52.550;13.408;2023-12-22T01:32:29;6.10;31.90
3037;DHT22;1528;52.550;13.408;2023-12-22T01:35:18;6.10;32.00
3037;DHT22;1528;52.550;13.408;2023-12-22T01:38:04;6.10;31.90
3037;DHT22;1528;52.550;13.408;2023-12-22T01:40:50;6.10;32.40
3037;DHT22;1528;52.550;13.408;2023-12-22T01:43:37;6.10;32.50
3037;DHT22;1528;52.550;13.408;2023-12-22T01:46:22;6.10;32.40
3037;DHT22;1528;52.550;13.408;2023-12-22T01:49:08;6.10;32.60
3037;DHT22;1528;52.550;13.408;2023-12-22T01:51:54;6.10;33.50
3037;DHT22;1528;52.550;13.408;2023-12-22T01:54:40;6.10;32.70
3037;DHT22;1528;52.550;13.408;2023-12-22T01:57:26;6.10;32.70
3037;DHT22;1528;52.550;13.408;2023-12-22T02:00:14;6.10;32.40
3037;DHT22;1528;52.550;13.408;2023-12-22T02:03:00;6.10;32.50
3037;DHT22;1528;52.550;13.408;2023-12-22T02:05:46;6.00;32.60
3037;DHT22;1528;52.550;13.408;2023-12-22T02:08:32;6.00;32.90
3037;DHT22;1528;52.550;13.408;2023-12-22T02:11:18;6.00;32.70
3037;DHT22;1528;52.550;13.408;2023-12-22T02:14:04;6.00;32.70
3037;DHT22;1528;52.550;13.408;2023-12-22T02:16:55;5.90;32.70
3037;DHT22;1528;52.550;13.408;2023-12-22T02:19:47;5.90;32.60
3037;DHT22;1528;52.550;13.408;2023-12-22T02:22:34;5.90;32.60
3037;DHT22;1528;52.550;13.408;2023-12-22T02:25:20;5.90;32.80
3037;DHT22;1528;52.550;13.408;2023-12-22T02:28:07;5.80;33.00
3037;DHT22;1528;52.550;13.408;2023-12-22T02:30:59;5.80;33.00
3037;DHT22;1528;52.550;13.408;2023-12-22T02:33:47;5.80;32.90
3037;DHT22;1528;52.550;13.408;2023-12-22T02:36:36;5.70;32.90
3037;DHT22;1528;52.550;13.408;2023-12-22T02:39:23;5.70;33.10
3037;DHT22;1528;52.550;13.408;2023-12-22T02:42:09;5.70;33.30
3037;DHT22;1528;52.550;13.408;2023-12-22T02:44:55;5.60;33.40
3037;DHT22;1528;52.550;13.408;2023-12-22T02:47:41;5.60;33.50
3037;DHT22;1528;52.550;13.408;2023-12-22T02:50:26;5.60;33.90
3037;DHT22;1528;52.550;13.408;2023-12-22T02:53:12;5.60;34.00
3037;DHT22;1528;52.550;13.408;2023-12-22T02:55:59;5.60;33.80
3037;DHT22;1528;52.550;13.408;2023-12-22T02:58:44;5.60;33.90
3037;DHT22;1528;52.550;13.408;2023-12-22T03:01:30;5.60;33.60
3037;DHT22;1528;52.550;13.408;2023-12-22T03:04:16;5.60;33.40
3037;DHT22;1528;52.550;13.408;2023-12-22T03:07:02;5.50;33.10
3037;DHT22;1528;52.550;13.408;2023-12-22T03:09:48;5.50;33.20
3037;DHT22;1528;52.550;13.408;2023-12-22T03:12:35;5.50;33.40
3037;DHT22;1528;52.550;13.408;2023-12-22T03:15:20;5.50;33.60
3037;DHT22;1528;52.550;13.408;2023-12-22T03:18:06;5.40;33.80
3037;DHT22;1528;52.550;13.408;2023-12-22T03:20:51;5.40;34.10
3037;DHT22;1528;52.550;13.408;2023-12-22T03:23:37;5.30;34.20
3037;DHT22;1528;52.550;13.408;2023-12-22T03:26:22;5.40;34.40
3037;DHT22;1528;52.550;13.408;2023-12-22T03:29:09;5.30;34.80
3037;DHT22;1528;52.550;13.408;2023-12-22T03:31:55;5.20;34.90
3037;DHT22;1528;52.550;13.408;2023-12-22T03:34:41;5.20;35.10
3037;DHT22;1528;52.550;13.408;2023-12-22T03:37:26;5.30;35.30
3037;DHT22;1528;52.550;13.408;2023-12-22T03:40:12;5.20;35.40
3037;DHT22;1528;52.550;13.408;2023-12-22T03:42:57;5.20;35.40
3037;DHT22;1528;52.550;13.408;2023-12-22T03:45:45;5.10;35.30
3037;DHT22;1528;52.550;13.408;2023-12-22T03:48:30;5.10;35.40
3037;DHT22;1528;52.550;13.408;2023-12-22T03:51:16;5.20;35.60
3037;DHT22;1528;52.550;13.408;2023-12-22T03:54:01;5.10;35.50
3037;DHT22;1528;52.550;13.408;2023-12-22T03:56:47;5.10;36.10
3037;DHT22;1528;52.550;13.408;2023-12-22T03:59:32;5.10;35.70
3037;DHT22;1528;52.550;13.408;2023-12-22T04:02:19;5.10;35.60
3037;DHT22;1528;52.550;13.408;2023-12-22T04:05:05;5.10;36.10
3037;DHT22;1528;52.550;13.408;2023-12-22T04:07:51;5.20;35.50
3037;DHT22;1528;52.550;13.408;2023-12-22T04:10:36;5.20;35.40
3037;DHT22;1528;52.550;13.408;2023-12-22T04:13:22;5.20;35.30
3037;DHT22;1528;52.550;13.408;2023-12-22T04:16:07;5.30;35.60
3037;DHT22;1528;52.550;13.408;2023-12-22T04:18:54;5.30;35.60
3037;DHT22;1528;52.550;13.408;2023-12-22T04:21:40;5.40;36.00
3037;DHT22;1528;52.550;13.408;2023-12-22T04:24:25;5.40;36.20
3037;DHT22;1528;52.550;13.408;2023-12-22T04:27:11;5.40;36.40
3037;DHT22;1528;52.550;13.408;2023-12-22T04:29:57;5.30;36.60
3037;DHT22;1528;52.550;13.408;2023-12-22T04:32:42;5.30;36.70
3037;DHT22;1528;52.550;13.408;2023-12-22T04:35:29;5.30;36.70
3037;DHT22;1528;52.550;13.408;2023-12-22T04:38:15;5.30;36.70
3037;DHT22;1528;52.550;13.408;2023-12-22T04:41:01;5.30;37.40
3037;DHT22;1528;52.550;13.408;2023-12-22T04:43:46;5.30;36.70
3037;DHT22;1528;52.550;13.408;2023-12-22T04:46:32;5.30;36.70
3037;DHT22;1528;52.550;13.408;2023-12-22T04:49:18;5.40;36.80
3037;DHT22;1528;52.550;13.408;2023-12-22T04:52:05;5.30;37.00
3037;DHT22;1528;52.550;13.408;2023-12-22T04:54:50;5.30;37.10
3037;DHT22;1528;52.550;13.408;2023-12-22T04:57:36;5.30;37.00
3037;DHT22;1528;52.550;13.408;2023-12-22T05:00:22;5.40;37.80
3037;DHT22;1528;52.550;13.408;2023-12-22T05:03:07;5.40;38.00
3037;DHT22;1528;52.550;13.408;2023-12-22T05:05:53;5.40;38.40
3037;DHT22;1528;52.550;13.408;2023-12-22T05:08:40;5.40;38.90
3037;DHT22;1528;52.550;13.408;2023-12-22T05:11:25;5.30;39.50
3037;DHT22;1528;52.550;13.408;2023-12-22T05:14:11;5.30;40.70
3037;DHT22;1528;52.550;13.408;2023-12-22T05:16:56;5.20;39.90
3037;DHT22;1528;52.550;13.408;2023-12-22T05:19:42;5.10;40.40
3037;DHT22;1528;52.550;13.408;2023-12-22T05:22:28;5.00;40.40
3037;DHT22;1528;52.550;13.408;2023-12-22T05:25:16;4.90;40.70
3037;DHT22;1528;52.550;13.408;2023-12-22T05:28:02;4.80;40.50
3037;DHT22;1528;52.550;13.408;2023-12-22T05:30:48;4.80;40.90
3037;DHT22;1528;52.550;13.408;2023-12-22T05:33:34;4.70;40.80
3037;DHT22;1528;52.550;13.408;2023-12-22T05:36:19;4.80;40.70
3037;DHT22;1528;52.550;13.408;2023-12-22T05:39:05;4.80;40.60
3037;DHT22;1528;52.550;13.408;2023-12-22T05:41:53;4.80;40.30
3037;DHT22;1528;52.550;13.408;2023-12-22T05:44:39;4.80;40.30
3037;DHT22;1528;52.550;13.408;2023-12-22T05:47:24;5.00;40.30
3037;DHT22;1528;52.550;13.408;2023-12-22T05:50:10;4.80;40.10
3037;DHT22;1528;52.550;13.408;2023-12-22T05:52:56;4.70;40.20
3037;DHT22;1528;52.550;13.408;2023-12-22T05:55:42;4.70;40.20
3037;DHT22;1528;52.550;13.408;2023-12-22T05:58:29;4.70;40.30
3037;DHT22;1528;52.550;13.408;2023-12-22T06:01:15;4.60;40.00
3037;DHT22;1528;52.550;13.408;2023-12-22T06:04:01;4.60;39.70
3037;DHT22;1528;52.550;13.408;2023-12-22T06:06:46;4.60;39.80
3037;DHT22;1528;52.550;13.408;2023-12-22T06:09:32;4.60;39.60
3037;DHT22;1528;52.550;13.408;2023-12-22T06:12:18;4.60;39.30
3037;DHT22;1528;52.550;13.408;2023-12-22T06:15:06;4.60;39.00
3037;DHT22;1528;52.550;13.408;2023-12-22T06:17:52;4.60;38.90
3037;DHT22;1528;52.550;13.408;2023-12-22T06:20:37;4.70;38.70
3037;DHT22;1528;52.550;13.408;2023-12-22T06:23:23;4.70;37.70
3037;DHT22;1528;52.550;13.408;2023-12-22T06:26:09;4.70;37.50
3037;DHT22;1528;52.550;13.408;2023-12-22T06:28:56;4.60;37.40
3037;DHT22;1528;52.550;13.408;2023-12-22T06:31:42;4.60;36.60
3037;DHT22;1528;52.550;13.408;2023-12-22T06:34:28;4.60;37.00
3037;DHT22;1528;52.550;13.408;2023-12-22T06:37:13;4.70;37.30
3037;DHT22;1528;52.550;13.408;2023-12-22T06:39:59;4.70;36.80
3037;DHT22;1528;52.550;13.408;2023-12-22T06:42:45;4.70;36.00
3037;DHT22;1528;52.550;13.408;2023-12-22T06:45:30;4.80;36.30
3037;DHT22;1528;52.550;13.408;2023-12-22T06:48:18;4.80;36.60
3037;DHT22;1528;52.550;13.408;2023-12-22T06:51:03;4.90;37.10
3037;DHT22;1528;52.550;13.408;2023-12-22T06:53:50;4.80;38.00
3037;DHT22;1528;52.550;13.408;2023-12-22T06:56:36;4.70;38.80
3037;DHT22;1528;52.550;13.408;2023-12-22T06:59:22;4.70;39.60
3037;DHT22;1528;52.550;13.408;2023-12-22T07:02:07;4.60;40.10
3037;DHT22;1528;52.550;13.408;2023-12-22T07:05:02;4.60;40.60
3037;DHT22;1528;52.550;13.408;2023-12-22T07:07:51;4.50;40.80
3037;DHT22;1528;52.550;13.408;2023-12-22T07:10:36;4.50;41.30
3037;DHT22;1528;52.550;13.408;2023-12-22T07:13:22;4.50;41.40
3037;DHT22;1528;52.550;13.408;2023-12-22T07:16:08;4.50;41.60
3037;DHT22;1528;52.550;13.408;2023-12-22T07:18:57;4.50;41.50
3037;DHT22;1528;52.550;13.408;2023-12-22T07:21:44;4.50;41.70
3037;DHT22;1528;52.550;13.408;2023-12-22T07:24:29;4.60;41.70
3037;DHT22;1528;52.550;13.408;2023-12-22T07:27:15;4.60;41.70
3037;DHT22;1528;52.550;13.408;2023-12-22T07:30:00;4.50;40.90
3037;DHT22;1528;52.550;13.408;2023-12-22T07:32:47;4.50;41.20
3037;DHT22;1528;52.550;13.408;2023-12-22T07:35:36;4.50;41.30
3037;DHT22;1528;52.550;13.408;2023-12-22T07:38:23;4.50;40.90
3037;DHT22;1528;52.550;13.408;2023-12-22T07:41:08;4.50;40.80
3037;DHT22;1528;52.550;13.408;2023-12-22T07:43:54;4.50;40.30
3037;DHT22;1528;52.550;13.408;2023-12-22T07:46:39;4.60;39.80
3037;DHT22;1528;52.550;13.408;2023-12-22T07:49:25;4.60;39.30
3037;DHT22;1528;52.550;13.408;2023-12-22T07:52:11;4.60;38.90
3037;DHT22;1528;52.550;13.408;2023-12-22T07:54:58;4.60;39.50
3037;DHT22;1528;52.550;13.408;2023-12-22T07:57:43;4.70;38.70
3037;DHT22;1528;52.550;13.408;2023-12-22T08:00:29;4.70;38.60
3037;DHT22;1528;52.550;13.408;2023-12-22T08:03:15;4.70;37.90
3037;DHT22;1528;52.550;13.408;2023-12-22T08:06:00;4.80;38.10
3037;DHT22;1528;52.550;13.408;2023-12-22T08:08:46;4.70;38.20
3037;DHT22;1528;52.550;13.408;2023-12-22T08:11:33;4.80;38.10
3037;DHT22;1528;52.550;13.408;2023-12-22T08:14:19;4.80;38.10
3037;DHT22;1528;52.550;13.408;2023-12-22T08:17:04;4.70;37.40
3037;DHT22;1528;52.550;13.408;2023-12-22T08:19:50;4.70;37.00
3037;DHT22;1528;52.550;13.408;2023-12-22T08:22:36;4.60;36.20
3037;DHT22;1528;52.550;13.408;2023-12-22T08:25:21;4.60;36.50
3037;DHT22;1528;52.550;13.408;2023-12-22T08:28:08;4.60;36.20
3037;DHT22;1528;52.550;13.408;2023-12-22T08:30:56;4.60;36.60
3037;DHT22;1528;52.550;13.408;2023-12-22T08:33:41;4.60;36.30
3037;DHT22;1528;52.550;13.408;2023-12-22T08:36:28;4.60;36.50
3037;DHT22;1528;52.550;13.408;2023-12-22T08:39:13;4.60;36.20
3037;DHT22;1528;52.550;13.408;2023-12-22T08:41:59;4.60;36.20
3037;DHT22;1528;52.550;13.408;2023-12-22T08:44:46;4.70;36.00
3037;DHT22;1528;52.550;13.408;2023-12-22T08:47:31;4.60;35.80
3037;DHT22;1528;52.550;13.408;2023-12-22T08:50:17;4.70;35.80
3037;DHT22;1528;52.550;13.408;2023-12-22T08:53:03;4.70;36.30
3037;DHT22;1528;52.550;13.408;2023-12-22T08:55:48;4.70;36.20
3037;DHT22;1528;52.550;13.408;2023-12-22T08:58:34;4.70;35.10
3037;DHT22;1528;52.550;13.408;2023-12-22T09:01:22;4.70;35.50
3037;DHT22;1528;52.550;13.408;2023-12-22T09:04:09;4.70;35.50
3037;DHT22;1528;52.550;13.408;2023-12-22T09:06:55;4.70;35.30
3037;DHT22;1528;52.550;13.408;2023-12-22T09:09:41;4.80;35.10
3037;DHT22;1528;52.550;13.408;2023-12-22T09:12:27;4.80;35.20
3037;DHT22;1528;52.550;13.408;2023-12-22T09:15:12;5.10;35.20
3037;DHT22;1528;52.550;13.408;2023-12-22T09:17:59;5.00;34.70
3037;DHT22;1528;52.550;13.408;2023-12-22T09:20:44;5.10;35.00
3037;DHT22;1528;52.550;13.408;2023-12-22T09:23:30;5.10;33.80
3037;DHT22;1528;52.550;13.408;2023-12-22T09:26:16;5.20;34.70
3037;DHT22;1528;52.550;13.408;2023-12-22T09:29:02;5.30;33.00
3037;DHT22;1528;52.550;13.408;2023-12-22T09:31:47;5.30;32.70
3037;DHT22;1528;52.550;13.408;2023-12-22T09:34:35;5.30;33.30
3037;DHT22;1528;52.550;13.408;2023-12-22T09:37:20;5.40;33.20
3037;DHT22;1528;52.550;13.408;2023-12-22T09:40:07;5.50;32.70
3037;DHT22;1528;52.550;13.408;2023-12-22T09:42:55;5.60;31.30
3037;DHT22;1528;52.550;13.408;2023-12-22T09:45:41;5.60;31.70
3037;DHT22;1528;52.550;13.408;2023-12-22T09:48:27;5.70;30.80
3037;DHT22;1528;52.550;13.408;2023-12-22T09:51:16;5.70;30.70
3037;DHT22;1528;52.550;13.408;2023-12-22T09:54:04;5.80;30.70
3037;DHT22;1528;52.550;13.408;2023-12-22T09:56:51;6.00;30.70
3037;DHT22;1528;52.550;13.408;2023-12-22T09:59:37;6.00;30.10
3037;DHT22;1528;52.550;13.408;2023-12-22T10:02:24;6.20;30.30
3037;DHT22;1528;52.550;13.408;2023-12-22T10:05:11;6.20;30.00
3037;DHT22;1528;52.550;13.408;2023-12-22T10:08:00;6.40;30.20
3037;DHT22;1528;52.550;13.408;2023-12-22T10:10:47;6.10;29.20
3037;DHT22;1528;52.550;13.408;2023-12-22T10:13:34;6.30;29.70
3037;DHT22;1528;52.550;13.408;2023-12-22T10:16:21;6.50;29.50
3037;DHT22;1528;52.550;13.408;2023-12-22T10:19:07;6.60;28.60
3037;DHT22;1528;52.550;13.408;2023-12-22T10:21:53;6.60;28.20
3037;DHT22;1528;52.550;13.408;2023-12-22T10:24:41;6.60;28.60
3037;DHT22;1528;52.550;13.408;2023-12-22T10:27:27;6.60;28.40
3037;DHT22;1528;52.550;13.408;2023-12-22T10:30:16;6.60;28.80
3037;DHT22;1528;52.550;13.408;2023-12-22T10:33:04;6.60;28.10
3037;DHT22;1528;52.550;13.408;2023-12-22T10:35:49;6.50;27.90
3037;DHT22;1528;52.550;13.408;2023-12-22T10:38:36;6.60;28.20
3037;DHT22;1528;52.550;13.408;2023-12-22T10:41:23;6.70;27.70
3037;DHT22;1528;52.550;13.408;2023-12-22T10:44:10;6.70;27.70
3037;DHT22;1528;52.550;13.408;2023-12-22T10:46:56;6.80;27.80
3037;DHT22;1528;52.550;13.408;2023-12-22T10:49:42;6.80;27.10
3037;DHT22;1528;52.550;13.408;2023-12-22T10:52:27;6.90;27.50
3037;DHT22;1528;52.550;13.408;2023-12-22T10:55:15;6.90;26.80
3037;DHT22;1528;52.550;13.408;2023-12-22T10:58:03;6.90;27.30
3037;DHT22;1528;52.550;13.408;2023-12-22T11:00:51;6.80;27.50
3037;DHT22;1528;52.550;13.408;2023-12-22T11:03:39;6.70;27.20
3037;DHT22;1528;52.550;13.408;2023-12-22T11:06:30;6.70;27.30
3037;DHT22;1528;52.550;13.408;2023-12-22T11:09:22;6.80;27.80
3037;DHT22;1528;52.550;13.408;2023-12-22T11:12:12;6.80;27.80
3037;DHT22;1528;52.550;13.408;2023-12-22T11:15:01;6.80;27.60
3037;DHT22;1528;52.550;13.408;2023-12-22T11:17:48;6.80;26.80
3037;DHT22;1528;52.550;13.408;2023-12-22T11:20:36;6.80;26.70
3037;DHT22;1528;52.550;13.408;2023-12-22T11:23:23;6.70;26.60
3037;DHT22;1528;52.550;13.408;2023-12-22T11:26:10;6.70;26.80
3037;DHT22;1528;52.550;13.408;2023-12-22T11:28:58;6.70;26.30
3037;DHT22;1528;52.550;13.408;2023-12-22T11:31:47;6.70;26.30
3037;DHT22;1528;52.550;13.408;2023-12-22T11:34:36;6.50;26.60
3037;DHT22;1528;52.550;13.408;2023-12-22T11:37:24;6.50;26.90
3037;DHT22;1528;52.550;13.408;2023-12-22T11:40:10;6.40;26.50
3037;DHT22;1528;52.550;13.408;2023-12-22T11:42:56;6.50;26.60
3037;DHT22;1528;52.550;13.408;2023-12-22T11:45:42;6.50;26.50
3037;DHT22;1528;52.550;13.408;2023-12-22T11:48:29;6.50;26.30
3037;DHT22;1528;52.550;13.408;2023-12-22T11:51:16;6.40;26.00
3037;DHT22;1528;52.550;13.408;2023-12-22T11:54:02;6.40;25.90
3037;DHT22;1528;52.550;13.408;2023-12-22T11:56:48;6.30;25.90
3037;DHT22;1528;52.550;13.408;2023-12-22T11:59:35;6.30;26.00
3037;DHT22;1528;52.550;13.408;2023-12-22T12:02:21;6.30;26.20
3037;DHT22;1528;52.550;13.408;2023-12-22T12:05:09;6.30;25.80
3037;DHT22;1528;52.550;13.408;2023-12-22T12:08:06;6.30;26.40
3037;DHT22;1528;52.550;13.408;2023-12-22T12:10:52;6.40;26.60
3037;DHT22;1528;52.550;13.408;2023-12-22T12:13:42;6.50;26.80
3037;DHT22;1528;52.550;13.408;2023-12-22T12:16:29;6.50;26.40
3037;DHT22;1528;52.550;13.408;2023-12-22T12:19:15;6.40;27.00
3037;DHT22;1528;52.550;13.408;2023-12-22T12:22:01;6.50;27.20
3037;DHT22;1528;52.550;13.408;2023-12-22T12:24:47;6.50;27.10
3037;DHT22;1528;52.550;13.408;2023-12-22T12:27:34;6.50;26.70
3037;DHT22;1528;52.550;13.408;2023-12-22T12:30:20;6.50;26.40
3037;DHT22;1528;52.550;13.408;2023-12-22T12:33:07;6.50;27.00
3037;DHT22;1528;52.550;13.408;2023-12-22T12:35:54;6.50;27.30
3037;DHT22;1528;52.550;13.408;2023-12-22T12:46:05;6.70;27.20
3037;DHT22;1528;52.550;13.408;2023-12-22T12:49:02;6.70;28.10
3037;DHT22;1528;52.550;13.408;2023-12-22T12:51:49;6.80;28.00
3037;DHT22;1528;52.550;13.408;2023-12-22T12:54:36;6.70;27.00
3037;DHT22;1528;52.550;13.408;2023-12-22T12:57:22;6.70;27.80
3037;DHT22;1528;52.550;13.408;2023-12-22T13:00:09;6.70;27.20
3037;DHT22;1528;52.550;13.408;2023-12-22T13:02:55;6.70;27.40
3037;DHT22;1528;52.550;13.408;2023-12-22T13:05:41;6.70;27.20
3037;DHT22;1528;52.550;13.408;2023-12-22T13:08:26;6.70;27.70
3037;DHT22;1528;52.550;13.408;2023-12-22T13:11:14;6.80;28.50
3037;DHT22;1528;52.550;13.408;2023-12-22T13:13:59;6.80;27.50
3037;DHT22;1528;52.550;13.408;2023-12-22T13:16:45;6.80;28.00
3037;DHT22;1528;52.550;13.408;2023-12-22T13:19:30;6.80;28.00
3037;DHT22;1528;52.550;13.408;2023-12-22T13:22:17;6.80;28.30
3037;DHT22;1528;52.550;13.408;2023-12-22T13:25:03;6.90;28.80
3037;DHT22;1528;52.550;13.408;2023-12-22T13:27:51;6.80;28.00
3037;DHT22;1528;52.550;13.408;2023-12-22T13:30:37;6.80;28.30
3037;DHT22;1528;52.550;13.408;2023-12-22T13:33:25;6.80;27.60
3037;DHT22;1528;52.550;13.408;2023-12-22T13:36:12;6.70;27.70
3037;DHT22;1528;52.550;13.408;2023-12-22T13:39:02;6.70;27.30
3037;DHT22;1528;52.550;13.408;2023-12-22T13:41:49;6.60;27.20
3037;DHT22;1528;52.550;13.408;2023-12-22T13:44:42;6.60;28.00
3037;DHT22;1528;52.550;13.408;2023-12-22T13:47:28;6.70;27.60
3037;DHT22;1528;52.550;13.408;2023-12-22T13:50:14;6.80;27.50
3037;DHT22;1528;52.550;13.408;2023-12-22T13:53:07;6.80;28.00
3037;DHT22;1528;52.550;13.408;2023-12-22T13:55:56;6.80;26.80
3037;DHT22;1528;52.550;13.408;2023-12-22T13:58:46;6.80;27.10
3037;DHT22;1528;52.550;13.408;2023-12-22T14:01:33;6.80;26.80
3037;DHT22;1528;52.550;13.408;2023-12-22T14:04:19;6.80;27.00
3037;DHT22;1528;52.550;13.408;2023-12-22T14:07:04;6.70;27.00
3037;DHT22;1528;52.550;13.408;2023-12-22T14:09:50;6.70;27.40
3037;DHT22;1528;52.550;13.408;2023-12-22T14:12:35;6.70;27.40
3037;DHT22;1528;52.550;13.408;2023-12-22T14:15:21;6.70;27.20
3037;DHT22;1528;52.550;13.408;2023-12-22T14:18:09;6.60;27.70
3037;DHT22;1528;52.550;13.408;2023-12-22T14:20:54;6.60;27.20
3037;DHT22;1528;52.550;13.408;2023-12-22T14:23:40;6.50;27.50
3037;DHT22;1528;52.550;13.408;2023-12-22T14:26:25;6.40;28.10
3037;DHT22;1528;52.550;13.408;2023-12-22T14:29:11;6.30;28.20
3037;DHT22;1528;52.550;13.408;2023-12-22T14:31:56;6.30;28.60
3037;DHT22;1528;52.550;13.408;2023-12-22T14:34:43;6.20;29.00
3037;DHT22;1528;52.550;13.408;2023-12-22T14:37:29;6.10;29.80
3037;DHT22;1528;52.550;13.408;2023-12-22T14:40:14;6.00;29.50
3037;DHT22;1528;52.550;13.408;2023-12-22T14:43:00;5.90;29.70
3037;DHT22;1528;52.550;13.408;2023-12-22T14:45:46;5.90;30.50
3037;DHT22;1528;52.550;13.408;2023-12-22T14:48:31;5.80;30.70
3037;DHT22;1528;52.550;13.408;2023-12-22T14:51:18;5.90;30.10
3037;DHT22;1528;52.550;13.408;2023-12-22T14:54:04;6.00;30.00
3037;DHT22;1528;52.550;13.408;2023-12-22T14:56:50;5.80;29.90
3037;DHT22;1528;52.550;13.408;2023-12-22T14:59:35;5.80;30.30
3037;DHT22;1528;52.550;13.408;2023-12-22T15:02:21;5.90;29.60
3037;DHT22;1528;52.550;13.408;2023-12-22T15:05:06;5.80;29.50
3037;DHT22;1528;52.550;13.408;2023-12-22T15:07:54;5.60;29.20
3037;DHT22;1528;52.550;13.408;2023-12-22T15:10:40;5.50;29.40
3037;DHT22;1528;52.550;13.408;2023-12-22T15:13:25;5.50;29.40
3037;DHT22;1528;52.550;13.408;2023-12-22T15:16:11;5.50;29.50
3037;DHT22;1528;52.550;13.408;2023-12-22T15:18:57;5.50;29.40
3037;DHT22;1528;52.550;13.408;2023-12-22T15:21:45;5.40;29.40
3037;DHT22;1528;52.550;13.408;2023-12-22T15:24:32;5.60;29.70
3037;DHT22;1528;52.550;13.408;2023-12-22T15:27:18;5.40;29.60
3037;DHT22;1528;52.550;13.408;2023-12-22T15:30:04;5.40;29.80
3037;DHT22;1528;52.550;13.408;2023-12-22T15:32:50;5.40;30.00
3037;DHT22;1528;52.550;13.408;2023-12-22T15:35:36;5.50;30.00
3037;DHT22;1528;52.550;13.408;2023-12-22T15:38:22;5.40;30.50
3037;DHT22;1528;52.550;13.408;2023-12-22T15:41:09;5.40;31.70
3037;DHT22;1528;52.550;13.408;2023-12-22T15:43:55;5.40;31.00
3037;DHT22;1528;52.550;13.408;2023-12-22T15:46:41;5.40;31.40
3037;DHT22;1528;52.550;13.408;2023-12-22T15:49:26;5.40;31.80
3037;DHT22;1528;52.550;13.408;2023-12-22T15:52:13;5.50;32.10
3037;DHT22;1528;52.550;13.408;2023-12-22T15:54:59;5.50;31.80
3037;DHT22;1528;52.550;13.408;2023-12-22T15:57:48;5.50;32.50
3037;DHT22;1528;52.550;13.408;2023-12-22T16:00:33;5.50;32.30
3037;DHT22;1528;52.550;13.408;2023-12-22T16:03:19;5.50;32.70
3037;DHT22;1528;52.550;13.408;2023-12-22T16:06:05;5.50;32.70
3037;DHT22;1528;52.550;13.408;2023-12-22T16:08:51;5.40;32.30
3037;DHT22;1528;52.550;13.408;2023-12-22T16:11:36;5.40;32.80
3037;DHT22;1528;52.550;13.408;2023-12-22T16:14:23;5.40;33.00
3037;DHT22;1528;52.550;13.408;2023-12-22T16:17:08;5.30;33.40
3037;DHT22;1528;52.550;13.408;2023-12-22T16:19:54;5.30;32.90
3037;DHT22;1528;52.550;13.408;2023-12-22T16:22:39;5.30;33.40
3037;DHT22;1528;52.550;13.408;2023-12-22T16:25:25;5.50;33.40
3037;DHT22;1528;52.550;13.408;2023-12-22T16:28:11;5.30;33.20
3037;DHT22;1528;52.550;13.408;2023-12-22T16:30:59;5.30;33.20
3037;DHT22;1528;52.550;13.408;2023-12-22T16:33:46;5.30;33.20
3037;DHT22;1528;52.550;13.408;2023-12-22T16:36:32;5.30;32.90
3037;DHT22;1528;52.550;13.408;2023-12-22T16:39:17;5.20;32.80
3037;DHT22;1528;52.550;13.408;2023-12-22T16:42:04;5.30;33.20
3037;DHT22;1528;52.550;13.408;2023-12-22T16:44:52;5.30;32.00
3037;DHT22;1528;52.550;13.408;2023-12-22T16:47:40;5.30;32.00
3037;DHT22;1528;52.550;13.408;2023-12-22T16:50:26;5.30;31.90
3037;DHT22;1528;52.550;13.408;2023-12-22T16:53:11;5.30;31.80
3037;DHT22;1528;52.550;13.408;2023-12-22T16:55:57;5.30;31.80
3037;DHT22;1528;52.550;13.408;2023-12-22T16:58:42;5.30;31.90
3037;DHT22;1528;52.550;13.408;2023-12-22T17:01:28;5.30;31.80
3037;DHT22;1528;52.550;13.408;2023-12-22T17:04:15;5.30;31.40
3037;DHT22;1528;52.550;13.408;2023-12-22T17:07:01;5.30;31.30
3037;DHT22;1528;52.550;13.408;2023-12-22T17:09:47;5.30;31.10
3037;DHT22;1528;52.550;13.408;2023-12-22T17:12:33;5.60;31.70
3037;DHT22;1528;52.550;13.408;2023-12-22T17:15:19;5.50;31.70
3037;DHT22;1528;52.550;13.408;2023-12-22T17:18:05;5.40;31.30
3037;DHT22;1528;52.550;13.408;2023-12-22T17:20:51;5.40;31.80
3037;DHT22;1528;52.550;13.408;2023-12-22T17:23:37;5.40;31.80
3037;DHT22;1528;52.550;13.408;2023-12-22T17:26:22;5.40;31.60
3037;DHT22;1528;52.550;13.408;2023-12-22T17:29:08;5.40;32.10
3037;DHT22;1528;52.550;13.408;2023-12-22T17:31:53;5.40;32.00
3037;DHT22;1528;52.550;13.408;2023-12-22T17:34:40;5.40;31.60
3037;DHT22;1528;52.550;13.408;2023-12-22T17:37:27;5.40;31.70
3037;DHT22;1528;52.550;13.408;2023-12-22T17:40:13;5.40;31.70
3037;DHT22;1528;52.550;13.408;2023-12-22T17:42:58;5.30;31.90
3037;DHT22;1528;52.550;13.408;2023-12-22T17:45:44;5.30;32.60
3037;DHT22;1528;52.550;13.408;2023-12-22T17:48:29;5.30;32.10
3037;DHT22;1528;52.550;13.408;2023-12-22T17:51:15;5.30;32.20
3037;DHT22;1528;52.550;13.408;2023-12-22T17:54:02;5.20;31.90
3037;DHT22;1528;52.550;13.408;2023-12-22T17:56:48;5.20;32.00
3037;DHT22;1528;52.550;13.408;2023-12-22T17:59:34;5.20;31.80
3037;DHT22;1528;52.550;13.408;2023-12-22T18:02:19;5.20;31.60
3037;DHT22;1528;52.550;13.408;2023-12-22T18:05:06;5.20;31.70
3037;DHT22;1528;52.550;13.408;2023-12-22T18:07:52;5.20;31.80
3037;DHT22;1528;52.550;13.408;2023-12-22T18:10:39;5.30;32.00
3037;DHT22;1528;52.550;13.408;2023-12-22T18:13:30;5.20;31.80